Weather at Dunnville Airport [CLOSED]

Public forecast

Using degrees Celsius for public forecast. Weather courtesy of forecast.io.

Closest aviation weather report (METAR) to Dunnville Airport

Closest report is John C. Munro Hamilton International Airport, 23.4 nm (43.4 km) NW. Retrieved 2021/04/21 08:26 UTC (16 minutes ago):

CYHM 210826Z 01007KT 1 1/2SM -SN OVC012 M03/M03 A2990 RMK SN2SC6 VIS VRB 1 - 2 SLP136

Closest aviation forecast (TAF) to Dunnville Airport

Closest forecast is John C. Munro Hamilton International Airport, 23.4 nm (43.4 km) NW. Retrieved 2021/04/21 06:39 UTC (2 hours ago):

TAF TAF CYHM 210538Z 2106/2206 30006KT 1SM -SN BR BKN005 OVC010 TEMPO 2106/2111 2SM -SN SCT008 OVC015 FM211100 33008KT 2SM -SN SCT008 OVC020 TEMPO 2111/2113 6SM -SN OVC030 FM211300 33008KT P6SM SCT020 OVC040 TEMPO 2113/2115 4SM -SN BKN020 OVC030 FM211500 33010KT P6SM BKN030 OVC090 FM211900 30015KT P6SM BKN040 FM220100 30008KT P6SM FEW040 RMK NXT FCST BY 211200Z